sensor_id;sensor_type;location;lat;lon;timestamp;P1;durP1;ratioP1;P2;durP2;ratioP2
51326;SDS011;37412;52.836;6.362;2023-05-29T00:00:25;9.88;;;2.53;;
51326;SDS011;37412;52.836;6.362;2023-05-29T00:03:11;11.30;;;2.70;;
51326;SDS011;37412;52.836;6.362;2023-05-29T00:05:58;10.70;;;2.97;;
51326;SDS011;37412;52.836;6.362;2023-05-29T00:08:44;9.23;;;2.65;;
51326;SDS011;37412;52.836;6.362;2023-05-29T00:11:30;12.63;;;2.85;;
51326;SDS011;37412;52.836;6.362;2023-05-29T00:14:16;10.50;;;3.17;;
51326;SDS011;37412;52.836;6.362;2023-05-29T00:17:06;12.30;;;3.13;;
51326;SDS011;37412;52.836;6.362;2023-05-29T00:19:55;11.40;;;2.95;;
51326;SDS011;37412;52.836;6.362;2023-05-29T00:22:42;13.30;;;3.03;;
51326;SDS011;37412;52.836;6.362;2023-05-29T00:25:28;10.65;;;2.70;;
51326;SDS011;37412;52.836;6.362;2023-05-29T00:28:15;14.05;;;3.17;;
51326;SDS011;37412;52.836;6.362;2023-05-29T00:31:01;9.57;;;2.35;;
51326;SDS011;37412;52.836;6.362;2023-05-29T00:33:48;9.25;;;2.78;;
51326;SDS011;37412;52.836;6.362;2023-05-29T00:36:34;12.20;;;2.67;;
51326;SDS011;37412;52.836;6.362;2023-05-29T00:39:20;10.95;;;2.83;;
51326;SDS011;37412;52.836;6.362;2023-05-29T00:42:09;11.70;;;2.65;;
51326;SDS011;37412;52.836;6.362;2023-05-29T00:44:55;10.15;;;2.70;;
51326;SDS011;37412;52.836;6.362;2023-05-29T00:47:41;10.82;;;2.75;;
51326;SDS011;37412;52.836;6.362;2023-05-29T00:50:30;9.20;;;2.50;;
51326;SDS011;37412;52.836;6.362;2023-05-29T00:53:17;9.68;;;2.58;;
51326;SDS011;37412;52.836;6.362;2023-05-29T00:56:07;11.00;;;2.53;;
51326;SDS011;37412;52.836;6.362;2023-05-29T00:58:54;11.93;;;2.78;;
51326;SDS011;37412;52.836;6.362;2023-05-29T01:01:40;9.13;;;2.42;;
51326;SDS011;37412;52.836;6.362;2023-05-29T01:04:30;7.88;;;2.45;;
51326;SDS011;37412;52.836;6.362;2023-05-29T01:07:20;10.87;;;2.70;;
51326;SDS011;37412;52.836;6.362;2023-05-29T01:10:06;12.20;;;3.08;;
51326;SDS011;37412;52.836;6.362;2023-05-29T01:12:57;10.55;;;2.60;;
51326;SDS011;37412;52.836;6.362;2023-05-29T01:16:12;9.23;;;2.38;;
51326;SDS011;37412;52.836;6.362;2023-05-29T01:22:47;12.95;;;2.63;;
51326;SDS011;37412;52.836;6.362;2023-05-29T01:29:01;11.23;;;2.70;;
51326;SDS011;37412;52.836;6.362;2023-05-29T01:31:49;10.65;;;2.70;;
51326;SDS011;37412;52.836;6.362;2023-05-29T01:34:39;9.18;;;2.50;;
51326;SDS011;37412;52.836;6.362;2023-05-29T01:37:30;11.27;;;2.78;;
51326;SDS011;37412;52.836;6.362;2023-05-29T01:40:15;11.98;;;2.72;;
51326;SDS011;37412;52.836;6.362;2023-05-29T01:43:02;11.90;;;2.83;;
51326;SDS011;37412;52.836;6.362;2023-05-29T01:45:51;12.35;;;2.97;;
51326;SDS011;37412;52.836;6.362;2023-05-29T01:48:38;10.38;;;2.70;;
51326;SDS011;37412;52.836;6.362;2023-05-29T01:51:28;12.10;;;3.08;;
51326;SDS011;37412;52.836;6.362;2023-05-29T01:54:14;12.45;;;2.92;;
51326;SDS011;37412;52.836;6.362;2023-05-29T01:57:00;10.10;;;3.03;;
51326;SDS011;37412;52.836;6.362;2023-05-29T01:59:47;11.27;;;2.58;;
51326;SDS011;37412;52.836;6.362;2023-05-29T02:02:38;12.27;;;2.90;;
51326;SDS011;37412;52.836;6.362;2023-05-29T02:05:24;12.68;;;2.90;;
51326;SDS011;37412;52.836;6.362;2023-05-29T02:08:10;8.82;;;2.55;;
51326;SDS011;37412;52.836;6.362;2023-05-29T02:10:57;10.48;;;2.45;;
51326;SDS011;37412;52.836;6.362;2023-05-29T02:13:44;10.98;;;2.30;;
51326;SDS011;37412;52.836;6.362;2023-05-29T02:16:30;9.52;;;2.55;;
51326;SDS011;37412;52.836;6.362;2023-05-29T02:19:18;12.80;;;2.50;;
51326;SDS011;37412;52.836;6.362;2023-05-29T02:22:04;11.57;;;2.78;;
51326;SDS011;37412;52.836;6.362;2023-05-29T02:24:50;13.30;;;2.83;;
51326;SDS011;37412;52.836;6.362;2023-05-29T02:27:36;10.90;;;2.42;;
51326;SDS011;37412;52.836;6.362;2023-05-29T02:30:22;9.00;;;2.40;;
51326;SDS011;37412;52.836;6.362;2023-05-29T02:33:08;12.63;;;2.70;;
51326;SDS011;37412;52.836;6.362;2023-05-29T02:35:56;10.13;;;2.95;;
51326;SDS011;37412;52.836;6.362;2023-05-29T02:38:42;13.05;;;2.88;;
51326;SDS011;37412;52.836;6.362;2023-05-29T02:41:28;8.63;;;2.58;;
51326;SDS011;37412;52.836;6.362;2023-05-29T02:44:14;10.50;;;2.95;;
51326;SDS011;37412;52.836;6.362;2023-05-29T02:47:01;10.48;;;2.65;;
51326;SDS011;37412;52.836;6.362;2023-05-29T02:49:47;10.00;;;2.47;;
51326;SDS011;37412;52.836;6.362;2023-05-29T02:52:33;10.02;;;2.58;;
51326;SDS011;37412;52.836;6.362;2023-05-29T02:55:20;9.00;;;2.67;;
51326;SDS011;37412;52.836;6.362;2023-05-29T02:58:09;11.90;;;2.85;;
51326;SDS011;37412;52.836;6.362;2023-05-29T03:00:57;9.00;;;2.28;;
51326;SDS011;37412;52.836;6.362;2023-05-29T03:03:43;10.05;;;2.90;;
51326;SDS011;37412;52.836;6.362;2023-05-29T03:06:29;9.88;;;2.88;;
51326;SDS011;37412;52.836;6.362;2023-05-29T03:09:15;10.25;;;2.70;;
51326;SDS011;37412;52.836;6.362;2023-05-29T03:12:02;12.10;;;2.70;;
51326;SDS011;37412;52.836;6.362;2023-05-29T03:14:48;9.02;;;2.30;;
51326;SDS011;37412;52.836;6.362;2023-05-29T03:17:35;10.10;;;2.40;;
51326;SDS011;37412;52.836;6.362;2023-05-29T03:20:23;9.52;;;2.50;;
51326;SDS011;37412;52.836;6.362;2023-05-29T03:23:09;11.02;;;2.70;;
51326;SDS011;37412;52.836;6.362;2023-05-29T03:25:55;10.82;;;2.70;;
51326;SDS011;37412;52.836;6.362;2023-05-29T03:28:41;10.90;;;2.90;;
51326;SDS011;37412;52.836;6.362;2023-05-29T03:31:28;10.88;;;3.00;;
51326;SDS011;37412;52.836;6.362;2023-05-29T03:34:14;10.20;;;2.88;;
51326;SDS011;37412;52.836;6.362;2023-05-29T03:37:00;12.25;;;2.90;;
51326;SDS011;37412;52.836;6.362;2023-05-29T03:39:47;10.65;;;2.70;;
51326;SDS011;37412;52.836;6.362;2023-05-29T03:42:33;13.18;;;3.05;;
51326;SDS011;37412;52.836;6.362;2023-05-29T03:45:20;11.30;;;2.80;;
51326;SDS011;37412;52.836;6.362;2023-05-29T03:48:06;10.98;;;2.65;;
51326;SDS011;37412;52.836;6.362;2023-05-29T03:50:53;10.73;;;2.80;;
51326;SDS011;37412;52.836;6.362;2023-05-29T03:53:39;9.07;;;2.47;;
51326;SDS011;37412;52.836;6.362;2023-05-29T03:56:25;10.35;;;2.63;;
51326;SDS011;37412;52.836;6.362;2023-05-29T03:59:11;8.55;;;2.67;;
51326;SDS011;37412;52.836;6.362;2023-05-29T04:01:57;11.57;;;2.97;;
51326;SDS011;37412;52.836;6.362;2023-05-29T04:04:46;9.17;;;2.60;;
51326;SDS011;37412;52.836;6.362;2023-05-29T04:07:33;10.02;;;2.55;;
51326;SDS011;37412;52.836;6.362;2023-05-29T04:10:19;10.15;;;2.70;;
51326;SDS011;37412;52.836;6.362;2023-05-29T04:13:05;12.40;;;2.92;;
51326;SDS011;37412;52.836;6.362;2023-05-29T04:15:51;11.95;;;2.75;;
51326;SDS011;37412;52.836;6.362;2023-05-29T04:18:38;9.07;;;2.70;;
51326;SDS011;37412;52.836;6.362;2023-05-29T04:21:25;7.82;;;2.55;;
51326;SDS011;37412;52.836;6.362;2023-05-29T04:24:11;11.70;;;2.60;;
51326;SDS011;37412;52.836;6.362;2023-05-29T04:27:00;11.03;;;2.50;;
51326;SDS011;37412;52.836;6.362;2023-05-29T04:29:47;10.95;;;3.20;;
51326;SDS011;37412;52.836;6.362;2023-05-29T04:32:33;12.23;;;3.07;;
51326;SDS011;37412;52.836;6.362;2023-05-29T04:35:19;12.45;;;2.70;;
51326;SDS011;37412;52.836;6.362;2023-05-29T04:38:07;9.48;;;2.72;;
51326;SDS011;37412;52.836;6.362;2023-05-29T04:40:53;11.50;;;2.90;;
51326;SDS011;37412;52.836;6.362;2023-05-29T04:43:43;9.93;;;2.90;;
51326;SDS011;37412;52.836;6.362;2023-05-29T04:46:32;9.57;;;2.63;;
51326;SDS011;37412;52.836;6.362;2023-05-29T04:49:23;11.55;;;2.83;;
51326;SDS011;37412;52.836;6.362;2023-05-29T04:52:09;10.20;;;2.55;;
51326;SDS011;37412;52.836;6.362;2023-05-29T04:54:59;10.40;;;2.80;;
51326;SDS011;37412;52.836;6.362;2023-05-29T04:57:46;9.53;;;2.80;;
51326;SDS011;37412;52.836;6.362;2023-05-29T05:00:31;11.63;;;3.00;;
51326;SDS011;37412;52.836;6.362;2023-05-29T05:03:17;9.47;;;3.23;;
51326;SDS011;37412;52.836;6.362;2023-05-29T05:06:04;10.13;;;3.17;;
51326;SDS011;37412;52.836;6.362;2023-05-29T05:08:53;11.40;;;2.72;;
51326;SDS011;37412;52.836;6.362;2023-05-29T05:11:39;10.25;;;3.10;;
51326;SDS011;37412;52.836;6.362;2023-05-29T05:14:24;11.43;;;3.20;;
51326;SDS011;37412;52.836;6.362;2023-05-29T05:17:11;9.90;;;3.00;;
51326;SDS011;37412;52.836;6.362;2023-05-29T05:19:57;11.23;;;2.80;;
51326;SDS011;37412;52.836;6.362;2023-05-29T05:22:42;11.20;;;3.27;;
51326;SDS011;37412;52.836;6.362;2023-05-29T05:25:31;10.20;;;2.80;;
51326;SDS011;37412;52.836;6.362;2023-05-29T05:28:21;12.07;;;2.80;;
51326;SDS011;37412;52.836;6.362;2023-05-29T05:31:07;10.23;;;2.93;;
51326;SDS011;37412;52.836;6.362;2023-05-29T05:33:54;10.97;;;3.17;;
51326;SDS011;37412;52.836;6.362;2023-05-29T05:36:40;11.73;;;2.88;;
51326;SDS011;37412;52.836;6.362;2023-05-29T05:39:26;11.88;;;3.10;;
51326;SDS011;37412;52.836;6.362;2023-05-29T05:42:12;11.30;;;2.83;;
51326;SDS011;37412;52.836;6.362;2023-05-29T05:44:58;9.63;;;2.55;;
51326;SDS011;37412;52.836;6.362;2023-05-29T05:47:44;11.52;;;2.70;;
51326;SDS011;37412;52.836;6.362;2023-05-29T05:50:31;11.48;;;2.80;;
51326;SDS011;37412;52.836;6.362;2023-05-29T05:53:17;10.27;;;2.70;;
51326;SDS011;37412;52.836;6.362;2023-05-29T05:56:03;8.32;;;2.40;;
51326;SDS011;37412;52.836;6.362;2023-05-29T05:58:49;11.15;;;2.90;;
51326;SDS011;37412;52.836;6.362;2023-05-29T06:01:35;11.33;;;2.67;;
51326;SDS011;37412;52.836;6.362;2023-05-29T06:04:22;10.63;;;2.80;;
51326;SDS011;37412;52.836;6.362;2023-05-29T06:07:08;9.93;;;2.78;;
51326;SDS011;37412;52.836;6.362;2023-05-29T06:09:54;9.60;;;2.67;;
51326;SDS011;37412;52.836;6.362;2023-05-29T06:12:40;11.70;;;2.67;;
51326;SDS011;37412;52.836;6.362;2023-05-29T06:15:26;10.13;;;2.60;;
51326;SDS011;37412;52.836;6.362;2023-05-29T06:18:12;11.48;;;2.80;;
51326;SDS011;37412;52.836;6.362;2023-05-29T06:20:58;10.30;;;2.67;;
51326;SDS011;37412;52.836;6.362;2023-05-29T06:23:44;9.17;;;2.87;;
51326;SDS011;37412;52.836;6.362;2023-05-29T06:26:30;9.60;;;2.90;;
51326;SDS011;37412;52.836;6.362;2023-05-29T06:29:16;10.85;;;2.92;;
51326;SDS011;37412;52.836;6.362;2023-05-29T06:32:02;11.43;;;3.05;;
51326;SDS011;37412;52.836;6.362;2023-05-29T06:34:49;10.25;;;2.67;;
51326;SDS011;37412;52.836;6.362;2023-05-29T06:37:35;9.50;;;2.80;;
51326;SDS011;37412;52.836;6.362;2023-05-29T06:40:21;13.88;;;3.03;;
51326;SDS011;37412;52.836;6.362;2023-05-29T06:43:07;11.38;;;2.67;;
51326;SDS011;37412;52.836;6.362;2023-05-29T06:45:54;10.00;;;2.90;;
51326;SDS011;37412;52.836;6.362;2023-05-29T06:48:40;14.35;;;3.00;;
51326;SDS011;37412;52.836;6.362;2023-05-29T06:51:26;11.03;;;3.00;;
51326;SDS011;37412;52.836;6.362;2023-05-29T06:54:12;9.55;;;2.90;;
51326;SDS011;37412;52.836;6.362;2023-05-29T06:56:59;10.25;;;2.90;;
51326;SDS011;37412;52.836;6.362;2023-05-29T06:59:45;10.70;;;2.60;;
51326;SDS011;37412;52.836;6.362;2023-05-29T07:02:31;8.13;;;2.75;;
51326;SDS011;37412;52.836;6.362;2023-05-29T07:05:17;10.75;;;2.95;;
51326;SDS011;37412;52.836;6.362;2023-05-29T07:08:03;12.43;;;3.10;;
51326;SDS011;37412;52.836;6.362;2023-05-29T07:10:49;10.13;;;3.10;;
51326;SDS011;37412;52.836;6.362;2023-05-29T07:13:35;9.90;;;3.00;;
51326;SDS011;37412;52.836;6.362;2023-05-29T07:16:21;12.48;;;3.22;;
51326;SDS011;37412;52.836;6.362;2023-05-29T07:19:07;9.63;;;3.03;;
51326;SDS011;37412;52.836;6.362;2023-05-29T07:21:53;9.38;;;3.00;;
51326;SDS011;37412;52.836;6.362;2023-05-29T07:24:39;12.48;;;3.20;;
51326;SDS011;37412;52.836;6.362;2023-05-29T07:27:26;11.57;;;2.90;;
51326;SDS011;37412;52.836;6.362;2023-05-29T07:30:12;12.30;;;3.35;;
51326;SDS011;37412;52.836;6.362;2023-05-29T07:32:58;10.93;;;3.20;;
51326;SDS011;37412;52.836;6.362;2023-05-29T07:35:44;11.18;;;3.60;;
51326;SDS011;37412;52.836;6.362;2023-05-29T07:38:30;9.30;;;3.40;;
51326;SDS011;37412;52.836;6.362;2023-05-29T07:41:16;11.75;;;3.20;;
51326;SDS011;37412;52.836;6.362;2023-05-29T07:44:02;9.27;;;2.93;;
51326;SDS011;37412;52.836;6.362;2023-05-29T07:46:48;11.25;;;3.35;;
51326;SDS011;37412;52.836;6.362;2023-05-29T07:49:34;12.98;;;3.53;;
51326;SDS011;37412;52.836;6.362;2023-05-29T07:52:23;13.18;;;3.35;;
51326;SDS011;37412;52.836;6.362;2023-05-29T07:55:09;11.27;;;3.22;;
51326;SDS011;37412;52.836;6.362;2023-05-29T07:57:56;14.55;;;3.55;;
51326;SDS011;37412;52.836;6.362;2023-05-29T08:00:43;11.35;;;3.42;;
51326;SDS011;37412;52.836;6.362;2023-05-29T08:03:32;11.48;;;3.22;;
51326;SDS011;37412;52.836;6.362;2023-05-29T08:06:18;9.88;;;2.95;;
51326;SDS011;37412;52.836;6.362;2023-05-29T08:09:04;10.85;;;3.47;;
51326;SDS011;37412;52.836;6.362;2023-05-29T08:11:50;10.95;;;3.40;;
51326;SDS011;37412;52.836;6.362;2023-05-29T08:14:37;11.65;;;3.28;;
51326;SDS011;37412;52.836;6.362;2023-05-29T08:17:23;11.03;;;2.93;;
51326;SDS011;37412;52.836;6.362;2023-05-29T08:20:09;10.32;;;3.30;;
51326;SDS011;37412;52.836;6.362;2023-05-29T08:22:59;10.63;;;3.05;;
51326;SDS011;37412;52.836;6.362;2023-05-29T08:25:45;12.00;;;3.35;;
51326;SDS011;37412;52.836;6.362;2023-05-29T08:28:31;11.23;;;3.10;;
51326;SDS011;37412;52.836;6.362;2023-05-29T08:31:17;12.43;;;3.75;;
51326;SDS011;37412;52.836;6.362;2023-05-29T08:34:04;12.05;;;3.40;;
51326;SDS011;37412;52.836;6.362;2023-05-29T08:36:52;10.68;;;3.40;;
51326;SDS011;37412;52.836;6.362;2023-05-29T08:39:40;12.50;;;3.50;;
51326;SDS011;37412;52.836;6.362;2023-05-29T08:42:26;12.75;;;3.67;;
51326;SDS011;37412;52.836;6.362;2023-05-29T08:45:19;12.98;;;3.22;;
51326;SDS011;37412;52.836;6.362;2023-05-29T08:48:07;12.55;;;3.35;;
51326;SDS011;37412;52.836;6.362;2023-05-29T08:50:56;10.95;;;3.45;;
51326;SDS011;37412;52.836;6.362;2023-05-29T08:53:43;11.63;;;3.17;;
51326;SDS011;37412;52.836;6.362;2023-05-29T08:56:29;10.60;;;3.10;;
51326;SDS011;37412;52.836;6.362;2023-05-29T08:59:15;10.63;;;3.35;;
51326;SDS011;37412;52.836;6.362;2023-05-29T09:02:03;12.03;;;3.70;;
51326;SDS011;37412;52.836;6.362;2023-05-29T09:04:49;9.43;;;3.20;;
51326;SDS011;37412;52.836;6.362;2023-05-29T09:07:38;11.68;;;3.53;;
51326;SDS011;37412;52.836;6.362;2023-05-29T09:10:24;12.75;;;3.42;;
51326;SDS011;37412;52.836;6.362;2023-05-29T09:13:11;12.77;;;3.47;;
51326;SDS011;37412;52.836;6.362;2023-05-29T09:15:58;13.20;;;3.63;;
51326;SDS011;37412;52.836;6.362;2023-05-29T09:18:44;9.77;;;3.15;;
51326;SDS011;37412;52.836;6.362;2023-05-29T09:21:31;9.68;;;3.03;;
51326;SDS011;37412;52.836;6.362;2023-05-29T09:24:19;9.90;;;3.00;;
51326;SDS011;37412;52.836;6.362;2023-05-29T09:27:05;11.20;;;3.30;;
51326;SDS011;37412;52.836;6.362;2023-05-29T09:29:53;11.20;;;3.10;;
51326;SDS011;37412;52.836;6.362;2023-05-29T09:32:39;8.63;;;3.00;;
51326;SDS011;37412;52.836;6.362;2023-05-29T09:35:25;12.00;;;3.30;;
51326;SDS011;37412;52.836;6.362;2023-05-29T09:38:20;12.00;;;3.30;;
51326;SDS011;37412;52.836;6.362;2023-05-29T09:41:06;11.10;;;3.08;;
51326;SDS011;37412;52.836;6.362;2023-05-29T09:43:52;9.73;;;2.92;;
51326;SDS011;37412;52.836;6.362;2023-05-29T09:46:41;10.80;;;3.40;;
51326;SDS011;37412;52.836;6.362;2023-05-29T09:49:31;10.25;;;3.10;;
51326;SDS011;37412;52.836;6.362;2023-05-29T09:52:21;10.48;;;3.20;;
51326;SDS011;37412;52.836;6.362;2023-05-29T09:55:07;11.33;;;3.33;;
51326;SDS011;37412;52.836;6.362;2023-05-29T09:57:56;10.20;;;3.10;;
51326;SDS011;37412;52.836;6.362;2023-05-29T10:00:44;12.32;;;3.72;;
51326;SDS011;37412;52.836;6.362;2023-05-29T10:03:30;10.90;;;2.97;;
51326;SDS011;37412;52.836;6.362;2023-05-29T10:06:20;10.60;;;3.28;;
51326;SDS011;37412;52.836;6.362;2023-05-29T10:09:07;10.70;;;3.30;;
51326;SDS011;37412;52.836;6.362;2023-05-29T10:11:55;13.27;;;3.45;;
51326;SDS011;37412;52.836;6.362;2023-05-29T10:14:46;12.13;;;3.35;;
51326;SDS011;37412;52.836;6.362;2023-05-29T10:17:38;10.85;;;3.45;;
51326;SDS011;37412;52.836;6.362;2023-05-29T10:20:31;11.05;;;3.33;;
51326;SDS011;37412;52.836;6.362;2023-05-29T10:23:21;11.65;;;3.08;;
51326;SDS011;37412;52.836;6.362;2023-05-29T10:26:12;12.23;;;3.20;;
51326;SDS011;37412;52.836;6.362;2023-05-29T10:38:44;11.82;;;3.53;;
51326;SDS011;37412;52.836;6.362;2023-05-29T10:41:34;12.55;;;3.28;;
51326;SDS011;37412;52.836;6.362;2023-05-29T10:47:23;10.18;;;3.10;;
51326;SDS011;37412;52.836;6.362;2023-05-29T10:50:09;9.18;;;3.30;;
51326;SDS011;37412;52.836;6.362;2023-05-29T10:53:01;9.73;;;3.08;;
51326;SDS011;37412;52.836;6.362;2023-05-29T10:55:47;10.75;;;3.40;;
51326;SDS011;37412;52.836;6.362;2023-05-29T10:58:36;12.02;;;3.50;;
51326;SDS011;37412;52.836;6.362;2023-05-29T11:01:23;11.13;;;2.67;;
51326;SDS011;37412;52.836;6.362;2023-05-29T11:07:05;8.73;;;3.10;;
51326;SDS011;37412;52.836;6.362;2023-05-29T11:10:01;11.30;;;3.38;;
51326;SDS011;37412;52.836;6.362;2023-05-29T11:12:58;8.43;;;2.90;;
51326;SDS011;37412;52.836;6.362;2023-05-29T11:16:04;11.85;;;3.25;;
51326;SDS011;37412;52.836;6.362;2023-05-29T11:19:09;11.32;;;2.90;;
51326;SDS011;37412;52.836;6.362;2023-05-29T11:22:14;8.38;;;3.17;;
51326;SDS011;37412;52.836;6.362;2023-05-29T11:25:06;9.40;;;3.13;;
51326;SDS011;37412;52.836;6.362;2023-05-29T11:27:52;12.27;;;3.73;;
51326;SDS011;37412;52.836;6.362;2023-05-29T11:30:43;10.25;;;3.13;;
51326;SDS011;37412;52.836;6.362;2023-05-29T11:33:35;9.32;;;2.90;;
51326;SDS011;37412;52.836;6.362;2023-05-29T11:36:33;9.82;;;3.00;;
51326;SDS011;37412;52.836;6.362;2023-05-29T11:39:19;11.65;;;3.38;;
51326;SDS011;37412;52.836;6.362;2023-05-29T11:42:05;8.38;;;2.75;;
51326;SDS011;37412;52.836;6.362;2023-05-29T11:44:53;10.25;;;2.97;;
51326;SDS011;37412;52.836;6.362;2023-05-29T11:47:52;10.40;;;2.83;;
51326;SDS011;37412;52.836;6.362;2023-05-29T11:50:45;9.80;;;3.30;;
51326;SDS011;37412;52.836;6.362;2023-05-29T11:53:31;9.60;;;2.80;;
51326;SDS011;37412;52.836;6.362;2023-05-29T11:56:17;10.13;;;3.07;;
51326;SDS011;37412;52.836;6.362;2023-05-29T11:59:03;10.60;;;3.00;;
51326;SDS011;37412;52.836;6.362;2023-05-29T12:01:53;11.45;;;3.33;;
51326;SDS011;37412;52.836;6.362;2023-05-29T12:04:39;10.25;;;2.90;;
51326;SDS011;37412;52.836;6.362;2023-05-29T12:07:24;11.45;;;2.90;;
51326;SDS011;37412;52.836;6.362;2023-05-29T12:10:14;10.50;;;3.30;;
51326;SDS011;37412;52.836;6.362;2023-05-29T12:13:02;9.43;;;2.85;;
51326;SDS011;37412;52.836;6.362;2023-05-29T12:15:48;11.50;;;3.22;;
51326;SDS011;37412;52.836;6.362;2023-05-29T12:18:37;10.23;;;3.20;;
51326;SDS011;37412;52.836;6.362;2023-05-29T12:21:24;11.70;;;3.30;;
51326;SDS011;37412;52.836;6.362;2023-05-29T12:24:12;9.65;;;2.90;;
51326;SDS011;37412;52.836;6.362;2023-05-29T12:26:59;8.55;;;2.70;;
51326;SDS011;37412;52.836;6.362;2023-05-29T12:29:46;8.57;;;2.90;;
51326;SDS011;37412;52.836;6.362;2023-05-29T12:32:35;11.97;;;3.10;;
51326;SDS011;37412;52.836;6.362;2023-05-29T12:35:26;9.43;;;2.92;;
51326;SDS011;37412;52.836;6.362;2023-05-29T12:38:13;9.80;;;3.00;;
51326;SDS011;37412;52.836;6.362;2023-05-29T12:40:59;9.95;;;3.13;;
51326;SDS011;37412;52.836;6.362;2023-05-29T12:43:45;10.85;;;3.10;;
51326;SDS011;37412;52.836;6.362;2023-05-29T12:46:42;12.18;;;3.40;;
51326;SDS011;37412;52.836;6.362;2023-05-29T12:49:28;9.25;;;3.15;;
51326;SDS011;37412;52.836;6.362;2023-05-29T12:52:15;8.85;;;3.00;;
51326;SDS011;37412;52.836;6.362;2023-05-29T12:55:06;9.27;;;2.83;;
51326;SDS011;37412;52.836;6.362;2023-05-29T12:57:52;9.63;;;3.15;;
51326;SDS011;37412;52.836;6.362;2023-05-29T13:00:43;10.90;;;3.15;;
51326;SDS011;37412;52.836;6.362;2023-05-29T13:03:29;8.57;;;3.05;;
51326;SDS011;37412;52.836;6.362;2023-05-29T13:06:16;7.88;;;2.55;;
51326;SDS011;37412;52.836;6.362;2023-05-29T13:09:02;7.55;;;2.20;;
51326;SDS011;37412;52.836;6.362;2023-05-29T13:11:48;8.27;;;2.58;;
51326;SDS011;37412;52.836;6.362;2023-05-29T13:14:34;10.25;;;3.00;;
51326;SDS011;37412;52.836;6.362;2023-05-29T13:17:20;9.10;;;2.67;;
51326;SDS011;37412;52.836;6.362;2023-05-29T13:20:10;9.75;;;2.60;;
51326;SDS011;37412;52.836;6.362;2023-05-29T13:23:00;7.55;;;2.10;;
51326;SDS011;37412;52.836;6.362;2023-05-29T13:25:47;7.50;;;2.42;;
51326;SDS011;37412;52.836;6.362;2023-05-29T13:28:36;7.68;;;2.15;;
51326;SDS011;37412;52.836;6.362;2023-05-29T13:31:21;9.65;;;2.25;;
51326;SDS011;37412;52.836;6.362;2023-05-29T13:34:08;9.77;;;2.38;;
51326;SDS011;37412;52.836;6.362;2023-05-29T13:36:56;9.38;;;2.40;;
51326;SDS011;37412;52.836;6.362;2023-05-29T13:39:42;10.38;;;2.03;;
51326;SDS011;37412;52.836;6.362;2023-05-29T13:42:27;10.73;;;2.50;;
51326;SDS011;37412;52.836;6.362;2023-05-29T13:45:13;7.25;;;2.00;;
51326;SDS011;37412;52.836;6.362;2023-05-29T13:47:59;8.98;;;2.47;;
51326;SDS011;37412;52.836;6.362;2023-05-29T13:50:45;6.80;;;2.10;;
51326;SDS011;37412;52.836;6.362;2023-05-29T13:53:31;7.72;;;2.05;;
51326;SDS011;37412;52.836;6.362;2023-05-29T13:56:20;12.65;;;2.58;;
51326;SDS011;37412;52.836;6.362;2023-05-29T13:59:09;9.98;;;2.45;;
51326;SDS011;37412;52.836;6.362;2023-05-29T14:01:55;8.82;;;2.20;;
51326;SDS011;37412;52.836;6.362;2023-05-29T14:04:40;8.77;;;2.47;;
51326;SDS011;37412;52.836;6.362;2023-05-29T14:07:28;9.90;;;2.15;;
51326;SDS011;37412;52.836;6.362;2023-05-29T14:10:14;7.88;;;2.00;;
51326;SDS011;37412;52.836;6.362;2023-05-29T14:13:00;11.25;;;2.40;;
51326;SDS011;37412;52.836;6.362;2023-05-29T14:15:46;7.03;;;2.20;;
51326;SDS011;37412;52.836;6.362;2023-05-29T14:18:34;8.68;;;1.90;;
51326;SDS011;37412;52.836;6.362;2023-05-29T14:21:20;7.38;;;1.98;;
51326;SDS011;37412;52.836;6.362;2023-05-29T14:24:06;8.05;;;2.05;;
51326;SDS011;37412;52.836;6.362;2023-05-29T14:26:52;8.07;;;2.00;;
51326;SDS011;37412;52.836;6.362;2023-05-29T14:29:38;6.80;;;2.10;;
51326;SDS011;37412;52.836;6.362;2023-05-29T14:32:24;7.75;;;1.90;;
51326;SDS011;37412;52.836;6.362;2023-05-29T14:35:13;7.53;;;1.77;;
51326;SDS011;37412;52.836;6.362;2023-05-29T14:37:59;8.23;;;2.22;;
51326;SDS011;37412;52.836;6.362;2023-05-29T14:40:45;11.35;;;2.13;;
51326;SDS011;37412;52.836;6.362;2023-05-29T14:43:31;7.07;;;2.08;;
51326;SDS011;37412;52.836;6.362;2023-05-29T14:46:17;7.78;;;2.40;;
51326;SDS011;37412;52.836;6.362;2023-05-29T14:49:04;5.50;;;1.80;;
51326;SDS011;37412;52.836;6.362;2023-05-29T14:51:51;7.65;;;2.03;;
51326;SDS011;37412;52.836;6.362;2023-05-29T14:54:36;10.82;;;2.28;;
51326;SDS011;37412;52.836;6.362;2023-05-29T14:57:23;7.30;;;1.98;;
51326;SDS011;37412;52.836;6.362;2023-05-29T15:00:13;10.13;;;1.88;;
51326;SDS011;37412;52.836;6.362;2023-05-29T15:02:59;9.13;;;2.33;;
51326;SDS011;37412;52.836;6.362;2023-05-29T15:05:45;9.10;;;2.40;;
51326;SDS011;37412;52.836;6.362;2023-05-29T15:08:31;9.07;;;2.30;;
51326;SDS011;37412;52.836;6.362;2023-05-29T15:11:19;9.23;;;2.22;;
51326;SDS011;37412;52.836;6.362;2023-05-29T15:14:05;11.75;;;2.22;;
51326;SDS011;37412;52.836;6.362;2023-05-29T15:16:51;8.38;;;2.05;;
51326;SDS011;37412;52.836;6.362;2023-05-29T15:19:37;10.07;;;2.35;;
51326;SDS011;37412;52.836;6.362;2023-05-29T15:22:26;10.27;;;2.00;;
51326;SDS011;37412;52.836;6.362;2023-05-29T15:25:13;6.70;;;1.90;;
51326;SDS011;37412;52.836;6.362;2023-05-29T15:28:00;9.05;;;2.50;;
51326;SDS011;37412;52.836;6.362;2023-05-29T15:30:46;13.40;;;2.17;;
51326;SDS011;37412;52.836;6.362;2023-05-29T15:33:35;6.65;;;1.75;;
51326;SDS011;37412;52.836;6.362;2023-05-29T15:36:21;7.20;;;1.80;;
51326;SDS011;37412;52.836;6.362;2023-05-29T15:39:07;8.73;;;2.22;;
51326;SDS011;37412;52.836;6.362;2023-05-29T15:41:53;8.30;;;2.20;;
51326;SDS011;37412;52.836;6.362;2023-05-29T15:44:39;8.98;;;2.20;;
51326;SDS011;37412;52.836;6.362;2023-05-29T15:47:25;7.80;;;2.33;;
51326;SDS011;37412;52.836;6.362;2023-05-29T15:50:14;6.80;;;1.92;;
51326;SDS011;37412;52.836;6.362;2023-05-29T15:53:00;8.85;;;2.60;;
51326;SDS011;37412;52.836;6.362;2023-05-29T15:55:46;7.50;;;1.88;;
51326;SDS011;37412;52.836;6.362;2023-05-29T15:58:31;7.15;;;1.75;;
51326;SDS011;37412;52.836;6.362;2023-05-29T16:01:17;7.22;;;1.70;;
51326;SDS011;37412;52.836;6.362;2023-05-29T16:04:03;7.32;;;2.17;;
51326;SDS011;37412;52.836;6.362;2023-05-29T16:06:50;7.43;;;2.13;;
51326;SDS011;37412;52.836;6.362;2023-05-29T16:09:36;6.95;;;1.77;;
51326;SDS011;37412;52.836;6.362;2023-05-29T16:12:23;7.95;;;2.30;;
51326;SDS011;37412;52.836;6.362;2023-05-29T16:15:11;6.97;;;2.15;;
51326;SDS011;37412;52.836;6.362;2023-05-29T16:17:57;7.97;;;2.80;;
51326;SDS011;37412;52.836;6.362;2023-05-29T16:20:46;9.00;;;2.70;;
51326;SDS011;37412;52.836;6.362;2023-05-29T16:23:34;6.30;;;2.13;;
51326;SDS011;37412;52.836;6.362;2023-05-29T16:26:20;7.45;;;2.22;;
51326;SDS011;37412;52.836;6.362;2023-05-29T16:29:06;6.00;;;2.17;;
51326;SDS011;37412;52.836;6.362;2023-05-29T16:31:52;6.18;;;2.10;;
51326;SDS011;37412;52.836;6.362;2023-05-29T16:34:38;7.93;;;2.42;;
51326;SDS011;37412;52.836;6.362;2023-05-29T16:37:25;8.60;;;2.20;;
51326;SDS011;37412;52.836;6.362;2023-05-29T16:40:11;7.18;;;2.10;;
51326;SDS011;37412;52.836;6.362;2023-05-29T16:42:58;6.43;;;2.15;;
51326;SDS011;37412;52.836;6.362;2023-05-29T16:45:43;6.17;;;2.30;;
51326;SDS011;37412;52.836;6.362;2023-05-29T16:48:30;7.75;;;2.33;;
51326;SDS011;37412;52.836;6.362;2023-05-29T16:51:16;6.65;;;2.08;;
51326;SDS011;37412;52.836;6.362;2023-05-29T16:54:02;6.45;;;2.10;;
51326;SDS011;37412;52.836;6.362;2023-05-29T16:56:48;8.10;;;2.10;;
51326;SDS011;37412;52.836;6.362;2023-05-29T16:59:34;8.02;;;2.10;;
51326;SDS011;37412;52.836;6.362;2023-05-29T17:02:20;6.93;;;2.10;;